sensor_id;sensor_type;location;lat;lon;timestamp;P1;durP1;ratioP1;P2;durP2;ratioP2
72929;SDS011;61073;54.260;20.816;2022-08-21T00:00:51;2.97;;;2.78;;
72929;SDS011;61073;54.260;20.816;2022-08-21T00:03:18;3.30;;;2.90;;
72929;SDS011;61073;54.260;20.816;2022-08-21T00:05:46;5.38;;;3.40;;
72929;SDS011;61073;54.260;20.816;2022-08-21T00:08:18;2.80;;;2.60;;
72929;SDS011;61073;54.260;20.816;2022-08-21T00:10:46;3.22;;;2.97;;
72929;SDS011;61073;54.260;20.816;2022-08-21T00:13:13;3.00;;;2.58;;
72929;SDS011;61073;54.260;20.816;2022-08-21T00:15:41;4.15;;;2.55;;
72929;SDS011;61073;54.260;20.816;2022-08-21T00:18:08;3.47;;;3.17;;
72929;SDS011;61073;54.260;20.816;2022-08-21T00:20:36;3.25;;;2.95;;
72929;SDS011;61073;54.260;20.816;2022-08-21T00:23:04;3.10;;;2.90;;
72929;SDS011;61073;54.260;20.816;2022-08-21T00:25:31;3.08;;;2.83;;
72929;SDS011;61073;54.260;20.816;2022-08-21T00:27:58;3.33;;;3.05;;
72929;SDS011;61073;54.260;20.816;2022-08-21T00:30:26;2.55;;;2.35;;
72929;SDS011;61073;54.260;20.816;2022-08-21T00:32:53;3.53;;;2.97;;
72929;SDS011;61073;54.260;20.816;2022-08-21T00:35:29;3.17;;;2.83;;
72929;SDS011;61073;54.260;20.816;2022-08-21T00:37:58;2.80;;;2.60;;
72929;SDS011;61073;54.260;20.816;2022-08-21T00:40:28;3.47;;;2.97;;
72929;SDS011;61073;54.260;20.816;2022-08-21T00:43:11;3.67;;;2.78;;
72929;SDS011;61073;54.260;20.816;2022-08-21T00:45:39;4.28;;;3.13;;
72929;SDS011;61073;54.260;20.816;2022-08-21T00:48:06;2.95;;;2.75;;
72929;SDS011;61073;54.260;20.816;2022-08-21T00:50:33;2.78;;;2.58;;
72929;SDS011;61073;54.260;20.816;2022-08-21T00:53:03;3.90;;;3.15;;
72929;SDS011;61073;54.260;20.816;2022-08-21T00:55:32;3.10;;;2.90;;
72929;SDS011;61073;54.260;20.816;2022-08-21T00:58:01;3.13;;;2.83;;
72929;SDS011;61073;54.260;20.816;2022-08-21T01:00:32;3.03;;;2.80;;
72929;SDS011;61073;54.260;20.816;2022-08-21T01:03:01;3.13;;;2.63;;
72929;SDS011;61073;54.260;20.816;2022-08-21T01:05:33;3.17;;;2.88;;
72929;SDS011;61073;54.260;20.816;2022-08-21T01:07:59;2.83;;;2.63;;
72929;SDS011;61073;54.260;20.816;2022-08-21T01:10:26;3.25;;;2.95;;
72929;SDS011;61073;54.260;20.816;2022-08-21T01:12:54;3.00;;;2.70;;
72929;SDS011;61073;54.260;20.816;2022-08-21T01:15:24;3.25;;;2.78;;
72929;SDS011;61073;54.260;20.816;2022-08-21T01:17:56;3.40;;;3.08;;
72929;SDS011;61073;54.260;20.816;2022-08-21T01:20:23;3.15;;;2.85;;
72929;SDS011;61073;54.260;20.816;2022-08-21T01:22:49;3.13;;;2.67;;
72929;SDS011;61073;54.260;20.816;2022-08-21T01:25:16;2.85;;;2.65;;
72929;SDS011;61073;54.260;20.816;2022-08-21T01:27:46;3.30;;;3.00;;
72929;SDS011;61073;54.260;20.816;2022-08-21T01:32:43;2.97;;;2.67;;
72929;SDS011;61073;54.260;20.816;2022-08-21T01:35:11;3.25;;;2.78;;
72929;SDS011;61073;54.260;20.816;2022-08-21T01:37:40;3.47;;;3.17;;
72929;SDS011;61073;54.260;20.816;2022-08-21T01:40:07;2.60;;;2.40;;
72929;SDS011;61073;54.260;20.816;2022-08-21T01:42:34;2.88;;;2.67;;
72929;SDS011;61073;54.260;20.816;2022-08-21T01:45:02;3.40;;;2.85;;
72929;SDS011;61073;54.260;20.816;2022-08-21T01:47:30;3.72;;;3.10;;
72929;SDS011;61073;54.260;20.816;2022-08-21T01:49:56;2.85;;;2.65;;
72929;SDS011;61073;54.260;20.816;2022-08-21T01:52:23;4.47;;;2.72;;
72929;SDS011;61073;54.260;20.816;2022-08-21T01:54:51;3.13;;;2.83;;
72929;SDS011;61073;54.260;20.816;2022-08-21T01:57:17;3.20;;;2.90;;
72929;SDS011;61073;54.260;20.816;2022-08-21T01:59:44;2.85;;;2.65;;
72929;SDS011;61073;54.260;20.816;2022-08-21T02:02:10;3.15;;;2.85;;
72929;SDS011;61073;54.260;20.816;2022-08-21T02:04:37;3.40;;;3.10;;
72929;SDS011;61073;54.260;20.816;2022-08-21T02:07:04;3.53;;;2.65;;
72929;SDS011;61073;54.260;20.816;2022-08-21T02:09:30;4.75;;;2.80;;
72929;SDS011;61073;54.260;20.816;2022-08-21T02:11:57;4.45;;;2.92;;
72929;SDS011;61073;54.260;20.816;2022-08-21T02:14:24;2.83;;;2.63;;
72929;SDS011;61073;54.260;20.816;2022-08-21T02:16:51;3.55;;;2.85;;
72929;SDS011;61073;54.260;20.816;2022-08-21T02:19:17;2.85;;;2.65;;
72929;SDS011;61073;54.260;20.816;2022-08-21T02:21:45;2.80;;;2.60;;
72929;SDS011;61073;54.260;20.816;2022-08-21T02:24:12;2.75;;;2.55;;
72929;SDS011;61073;54.260;20.816;2022-08-21T02:26:38;3.17;;;2.95;;
72929;SDS011;61073;54.260;20.816;2022-08-21T02:29:05;2.70;;;2.50;;
72929;SDS011;61073;54.260;20.816;2022-08-21T02:31:32;2.75;;;2.55;;
72929;SDS011;61073;54.260;20.816;2022-08-21T02:33:58;3.35;;;3.05;;
72929;SDS011;61073;54.260;20.816;2022-08-21T02:36:25;2.97;;;2.63;;
72929;SDS011;61073;54.260;20.816;2022-08-21T02:38:52;2.63;;;2.42;;
72929;SDS011;61073;54.260;20.816;2022-08-21T02:41:20;3.03;;;2.75;;
72929;SDS011;61073;54.260;20.816;2022-08-21T02:43:47;3.13;;;2.90;;
72929;SDS011;61073;54.260;20.816;2022-08-21T02:46:15;2.47;;;2.33;;
72929;SDS011;61073;54.260;20.816;2022-08-21T02:48:44;2.85;;;2.60;;
72929;SDS011;61073;54.260;20.816;2022-08-21T02:51:14;3.05;;;2.75;;
72929;SDS011;61073;54.260;20.816;2022-08-21T02:53:44;2.80;;;2.60;;
72929;SDS011;61073;54.260;20.816;2022-08-21T02:56:14;3.40;;;2.92;;
72929;SDS011;61073;54.260;20.816;2022-08-21T02:58:44;3.15;;;2.85;;
72929;SDS011;61073;54.260;20.816;2022-08-21T03:01:14;3.28;;;2.97;;
72929;SDS011;61073;54.260;20.816;2022-08-21T03:03:42;3.17;;;2.88;;
72929;SDS011;61073;54.260;20.816;2022-08-21T03:06:11;2.53;;;2.30;;
72929;SDS011;61073;54.260;20.816;2022-08-21T03:08:40;2.55;;;2.35;;
72929;SDS011;61073;54.260;20.816;2022-08-21T03:11:07;2.80;;;2.53;;
72929;SDS011;61073;54.260;20.816;2022-08-21T03:13:33;2.83;;;2.63;;
72929;SDS011;61073;54.260;20.816;2022-08-21T03:16:00;2.70;;;2.50;;
72929;SDS011;61073;54.260;20.816;2022-08-21T03:18:28;2.75;;;2.55;;
72929;SDS011;61073;54.260;20.816;2022-08-21T03:20:54;2.83;;;2.63;;
72929;SDS011;61073;54.260;20.816;2022-08-21T03:23:21;3.60;;;2.60;;
72929;SDS011;61073;54.260;20.816;2022-08-21T03:25:48;3.40;;;2.80;;
72929;SDS011;61073;54.260;20.816;2022-08-21T03:28:18;2.63;;;2.42;;
72929;SDS011;61073;54.260;20.816;2022-08-21T03:30:48;3.22;;;2.92;;
72929;SDS011;61073;54.260;20.816;2022-08-21T03:33:16;2.40;;;2.20;;
72929;SDS011;61073;54.260;20.816;2022-08-21T03:35:45;2.88;;;2.67;;
72929;SDS011;61073;54.260;20.816;2022-08-21T03:38:15;2.85;;;2.60;;
72929;SDS011;61073;54.260;20.816;2022-08-21T03:40:42;2.63;;;2.42;;
72929;SDS011;61073;54.260;20.816;2022-08-21T03:43:09;2.60;;;2.40;;
72929;SDS011;61073;54.260;20.816;2022-08-21T03:45:36;5.55;;;2.70;;
72929;SDS011;61073;54.260;20.816;2022-08-21T03:48:04;3.08;;;2.88;;
72929;SDS011;61073;54.260;20.816;2022-08-21T03:50:33;3.05;;;2.50;;
72929;SDS011;61073;54.260;20.816;2022-08-21T03:53:00;3.47;;;3.17;;
72929;SDS011;61073;54.260;20.816;2022-08-21T03:55:27;2.80;;;2.60;;
72929;SDS011;61073;54.260;20.816;2022-08-21T03:57:54;2.92;;;2.53;;
72929;SDS011;61073;54.260;20.816;2022-08-21T04:00:22;3.22;;;2.88;;
72929;SDS011;61073;54.260;20.816;2022-08-21T04:02:50;2.65;;;2.45;;
72929;SDS011;61073;54.260;20.816;2022-08-21T04:05:18;2.80;;;2.60;;
72929;SDS011;61073;54.260;20.816;2022-08-21T04:08:03;2.50;;;2.30;;
72929;SDS011;61073;54.260;20.816;2022-08-21T04:10:31;4.32;;;2.72;;
72929;SDS011;61073;54.260;20.816;2022-08-21T04:13:00;2.75;;;2.55;;
72929;SDS011;61073;54.260;20.816;2022-08-21T04:15:27;2.67;;;2.47;;
72929;SDS011;61073;54.260;20.816;2022-08-21T04:17:54;2.67;;;2.47;;
72929;SDS011;61073;54.260;20.816;2022-08-21T04:20:21;2.97;;;2.67;;
72929;SDS011;61073;54.260;20.816;2022-08-21T04:22:48;2.78;;;2.58;;
72929;SDS011;61073;54.260;20.816;2022-08-21T04:25:16;2.75;;;2.55;;
72929;SDS011;61073;54.260;20.816;2022-08-21T04:27:44;2.30;;;2.20;;
72929;SDS011;61073;54.260;20.816;2022-08-21T04:30:11;3.05;;;2.75;;
72929;SDS011;61073;54.260;20.816;2022-08-21T04:32:41;2.70;;;2.50;;
72929;SDS011;61073;54.260;20.816;2022-08-21T04:35:10;2.90;;;2.60;;
72929;SDS011;61073;54.260;20.816;2022-08-21T04:37:37;2.85;;;2.60;;
72929;SDS011;61073;54.260;20.816;2022-08-21T04:40:04;2.15;;;2.03;;
72929;SDS011;61073;54.260;20.816;2022-08-21T04:42:32;2.95;;;2.22;;
72929;SDS011;61073;54.260;20.816;2022-08-21T04:45:06;2.70;;;2.50;;
72929;SDS011;61073;54.260;20.816;2022-08-21T04:47:33;3.67;;;2.55;;
72929;SDS011;61073;54.260;20.816;2022-08-21T04:49:59;2.67;;;2.47;;
72929;SDS011;61073;54.260;20.816;2022-08-21T04:52:26;2.90;;;2.63;;
72929;SDS011;61073;54.260;20.816;2022-08-21T04:54:52;2.72;;;2.53;;
72929;SDS011;61073;54.260;20.816;2022-08-21T04:57:20;2.42;;;2.22;;
72929;SDS011;61073;54.260;20.816;2022-08-21T04:59:47;2.97;;;2.70;;
72929;SDS011;61073;54.260;20.816;2022-08-21T05:02:15;3.25;;;2.90;;
72929;SDS011;61073;54.260;20.816;2022-08-21T05:04:48;2.60;;;2.40;;
72929;SDS011;61073;54.260;20.816;2022-08-21T05:07:19;2.13;;;2.03;;
72929;SDS011;61073;54.260;20.816;2022-08-21T05:09:49;2.85;;;2.60;;
72929;SDS011;61073;54.260;20.816;2022-08-21T05:12:16;2.78;;;2.58;;
72929;SDS011;61073;54.260;20.816;2022-08-21T05:14:43;4.30;;;2.50;;
72929;SDS011;61073;54.260;20.816;2022-08-21T05:17:09;2.78;;;2.58;;
72929;SDS011;61073;54.260;20.816;2022-08-21T05:19:36;3.55;;;2.40;;
72929;SDS011;61073;54.260;20.816;2022-08-21T05:22:03;3.00;;;2.80;;
72929;SDS011;61073;54.260;20.816;2022-08-21T05:24:29;3.08;;;2.65;;
72929;SDS011;61073;54.260;20.816;2022-08-21T05:26:57;2.53;;;2.33;;
72929;SDS011;61073;54.260;20.816;2022-08-21T05:29:24;2.22;;;2.13;;
72929;SDS011;61073;54.260;20.816;2022-08-21T05:31:51;3.28;;;2.50;;
72929;SDS011;61073;54.260;20.816;2022-08-21T05:34:18;2.58;;;2.38;;
72929;SDS011;61073;54.260;20.816;2022-08-21T05:36:48;2.25;;;2.08;;
72929;SDS011;61073;54.260;20.816;2022-08-21T05:39:15;4.15;;;2.47;;
72929;SDS011;61073;54.260;20.816;2022-08-21T05:41:42;2.47;;;2.28;;
72929;SDS011;61073;54.260;20.816;2022-08-21T05:44:09;2.70;;;2.50;;
72929;SDS011;61073;54.260;20.816;2022-08-21T05:46:35;2.42;;;2.22;;
72929;SDS011;61073;54.260;20.816;2022-08-21T05:49:03;2.97;;;2.22;;
72929;SDS011;61073;54.260;20.816;2022-08-21T05:51:30;2.90;;;2.60;;
72929;SDS011;61073;54.260;20.816;2022-08-21T05:53:57;2.55;;;2.33;;
72929;SDS011;61073;54.260;20.816;2022-08-21T05:56:23;3.25;;;2.42;;
72929;SDS011;61073;54.260;20.816;2022-08-21T05:58:50;2.60;;;2.40;;
72929;SDS011;61073;54.260;20.816;2022-08-21T06:01:16;2.50;;;2.30;;
72929;SDS011;61073;54.260;20.816;2022-08-21T06:03:43;2.67;;;2.47;;
72929;SDS011;61073;54.260;20.816;2022-08-21T06:06:10;2.53;;;2.33;;
72929;SDS011;61073;54.260;20.816;2022-08-21T06:08:36;2.85;;;2.65;;
72929;SDS011;61073;54.260;20.816;2022-08-21T06:11:03;3.60;;;2.88;;
72929;SDS011;61073;54.260;20.816;2022-08-21T06:13:31;2.42;;;2.25;;
72929;SDS011;61073;54.260;20.816;2022-08-21T06:18:36;2.33;;;2.13;;
72929;SDS011;61073;54.260;20.816;2022-08-21T06:21:03;4.38;;;2.60;;
72929;SDS011;61073;54.260;20.816;2022-08-21T06:23:32;2.80;;;2.60;;
72929;SDS011;61073;54.260;20.816;2022-08-21T06:25:59;2.67;;;2.47;;
72929;SDS011;61073;54.260;20.816;2022-08-21T06:28:27;3.15;;;2.60;;
72929;SDS011;61073;54.260;20.816;2022-08-21T06:30:54;2.72;;;2.47;;
72929;SDS011;61073;54.260;20.816;2022-08-21T06:33:20;2.70;;;2.50;;
72929;SDS011;61073;54.260;20.816;2022-08-21T06:35:47;2.55;;;2.35;;
72929;SDS011;61073;54.260;20.816;2022-08-21T06:38:14;2.63;;;2.42;;
72929;SDS011;61073;54.260;20.816;2022-08-21T06:40:41;2.70;;;2.50;;
72929;SDS011;61073;54.260;20.816;2022-08-21T06:43:10;2.67;;;2.47;;
72929;SDS011;61073;54.260;20.816;2022-08-21T06:45:41;2.50;;;2.30;;
72929;SDS011;61073;54.260;20.816;2022-08-21T06:48:07;2.72;;;2.53;;
72929;SDS011;61073;54.260;20.816;2022-08-21T06:50:34;2.63;;;2.42;;
72929;SDS011;61073;54.260;20.816;2022-08-21T06:53:05;2.70;;;2.50;;
72929;SDS011;61073;54.260;20.816;2022-08-21T06:55:34;2.67;;;2.47;;
72929;SDS011;61073;54.260;20.816;2022-08-21T06:58:00;2.58;;;2.38;;
72929;SDS011;61073;54.260;20.816;2022-08-21T07:00:27;2.67;;;2.47;;
72929;SDS011;61073;54.260;20.816;2022-08-21T07:02:54;2.20;;;2.10;;
72929;SDS011;61073;54.260;20.816;2022-08-21T07:05:20;2.60;;;2.40;;
72929;SDS011;61073;54.260;20.816;2022-08-21T07:07:47;2.13;;;2.03;;
72929;SDS011;61073;54.260;20.816;2022-08-21T07:10:15;2.40;;;2.20;;
72929;SDS011;61073;54.260;20.816;2022-08-21T07:12:42;2.83;;;2.53;;
72929;SDS011;61073;54.260;20.816;2022-08-21T07:15:09;3.10;;;2.60;;
72929;SDS011;61073;54.260;20.816;2022-08-21T07:17:36;3.15;;;2.50;;
72929;SDS011;61073;54.260;20.816;2022-08-21T07:20:03;2.47;;;2.28;;
72929;SDS011;61073;54.260;20.816;2022-08-21T07:22:31;2.60;;;2.40;;
72929;SDS011;61073;54.260;20.816;2022-08-21T07:24:58;2.50;;;2.15;;
72929;SDS011;61073;54.260;20.816;2022-08-21T07:27:25;2.50;;;2.30;;
72929;SDS011;61073;54.260;20.816;2022-08-21T07:29:53;2.75;;;2.55;;
72929;SDS011;61073;54.260;20.816;2022-08-21T07:32:20;2.60;;;2.38;;
72929;SDS011;61073;54.260;20.816;2022-08-21T07:34:46;2.22;;;2.10;;
72929;SDS011;61073;54.260;20.816;2022-08-21T07:37:13;2.85;;;2.60;;
72929;SDS011;61073;54.260;20.816;2022-08-21T07:39:40;2.60;;;2.40;;
72929;SDS011;61073;54.260;20.816;2022-08-21T07:42:07;2.45;;;2.25;;
72929;SDS011;61073;54.260;20.816;2022-08-21T07:44:34;2.50;;;2.30;;
72929;SDS011;61073;54.260;20.816;2022-08-21T07:47:01;3.95;;;2.35;;
72929;SDS011;61073;54.260;20.816;2022-08-21T07:49:28;2.60;;;2.38;;
72929;SDS011;61073;54.260;20.816;2022-08-21T07:51:54;2.25;;;2.05;;
72929;SDS011;61073;54.260;20.816;2022-08-21T07:54:22;2.95;;;2.50;;
72929;SDS011;61073;54.260;20.816;2022-08-21T07:56:49;2.47;;;2.28;;
72929;SDS011;61073;54.260;20.816;2022-08-21T07:59:15;2.60;;;2.40;;
72929;SDS011;61073;54.260;20.816;2022-08-21T08:01:43;2.40;;;2.20;;
72929;SDS011;61073;54.260;20.816;2022-08-21T08:04:09;2.20;;;2.00;;
72929;SDS011;61073;54.260;20.816;2022-08-21T08:06:36;2.92;;;2.25;;
72929;SDS011;61073;54.260;20.816;2022-08-21T08:09:03;2.38;;;2.17;;
72929;SDS011;61073;54.260;20.816;2022-08-21T08:11:30;2.60;;;2.20;;
72929;SDS011;61073;54.260;20.816;2022-08-21T08:13:56;2.53;;;2.22;;
72929;SDS011;61073;54.260;20.816;2022-08-21T08:16:25;2.40;;;2.20;;
72929;SDS011;61073;54.260;20.816;2022-08-21T08:18:52;2.38;;;2.17;;
72929;SDS011;61073;54.260;20.816;2022-08-21T08:21:21;2.60;;;2.10;;
72929;SDS011;61073;54.260;20.816;2022-08-21T08:23:48;2.70;;;2.28;;
72929;SDS011;61073;54.260;20.816;2022-08-21T08:26:14;2.40;;;2.20;;
72929;SDS011;61073;54.260;20.816;2022-08-21T08:28:44;2.30;;;2.10;;
72929;SDS011;61073;54.260;20.816;2022-08-21T08:31:12;2.63;;;2.10;;
72929;SDS011;61073;54.260;20.816;2022-08-21T08:33:39;2.50;;;2.30;;
72929;SDS011;61073;54.260;20.816;2022-08-21T08:36:11;2.40;;;2.20;;
72929;SDS011;61073;54.260;20.816;2022-08-21T08:38:39;2.72;;;2.53;;
72929;SDS011;61073;54.260;20.816;2022-08-21T08:43:48;2.88;;;2.40;;
72929;SDS011;61073;54.260;20.816;2022-08-21T08:46:19;2.30;;;2.10;;
72929;SDS011;61073;54.260;20.816;2022-08-21T08:48:56;2.55;;;2.35;;
72929;SDS011;61073;54.260;20.816;2022-08-21T08:54:42;2.42;;;2.22;;
72929;SDS011;61073;54.260;20.816;2022-08-21T08:57:19;2.50;;;2.30;;
72929;SDS011;61073;54.260;20.816;2022-08-21T08:59:48;2.22;;;2.10;;
72929;SDS011;61073;54.260;20.816;2022-08-21T09:02:18;2.35;;;2.15;;
72929;SDS011;61073;54.260;20.816;2022-08-21T09:04:47;2.53;;;2.33;;
72929;SDS011;61073;54.260;20.816;2022-08-21T09:10:20;2.53;;;2.35;;
72929;SDS011;61073;54.260;20.816;2022-08-21T09:15:51;2.80;;;2.50;;
72929;SDS011;61073;54.260;20.816;2022-08-21T09:18:35;2.35;;;2.15;;
72929;SDS011;61073;54.260;20.816;2022-08-21T09:24:22;2.17;;;1.98;;
72929;SDS011;61073;54.260;20.816;2022-08-21T09:27:10;2.40;;;2.20;;
72929;SDS011;61073;54.260;20.816;2022-08-21T09:29:41;2.63;;;2.42;;
72929;SDS011;61073;54.260;20.816;2022-08-21T09:32:17;3.00;;;2.80;;
72929;SDS011;61073;54.260;20.816;2022-08-21T09:45:47;3.15;;;2.45;;
72929;SDS011;61073;54.260;20.816;2022-08-21T09:48:18;2.30;;;2.10;;
72929;SDS011;61073;54.260;20.816;2022-08-21T09:50:49;2.33;;;2.13;;
72929;SDS011;61073;54.260;20.816;2022-08-21T09:53:21;2.40;;;2.20;;
72929;SDS011;61073;54.260;20.816;2022-08-21T09:55:53;2.67;;;2.47;;
72929;SDS011;61073;54.260;20.816;2022-08-21T09:58:42;2.22;;;2.03;;
72929;SDS011;61073;54.260;20.816;2022-08-21T10:01:13;2.72;;;2.50;;
72929;SDS011;61073;54.260;20.816;2022-08-21T10:03:44;2.60;;;2.40;;
72929;SDS011;61073;54.260;20.816;2022-08-21T10:09:04;2.00;;;1.90;;
72929;SDS011;61073;54.260;20.816;2022-08-21T10:22:40;2.80;;;2.60;;
72929;SDS011;61073;54.260;20.816;2022-08-21T10:31:02;2.30;;;2.10;;
72929;SDS011;61073;54.260;20.816;2022-08-21T10:42:08;2.78;;;2.58;;
72929;SDS011;61073;54.260;20.816;2022-08-21T10:47:47;2.67;;;2.47;;
72929;SDS011;61073;54.260;20.816;2022-08-21T10:50:19;2.53;;;2.33;;
72929;SDS011;61073;54.260;20.816;2022-08-21T10:52:56;2.60;;;2.33;;
72929;SDS011;61073;54.260;20.816;2022-08-21T10:55:31;3.22;;;2.25;;
72929;SDS011;61073;54.260;20.816;2022-08-21T10:58:29;2.25;;;2.03;;
72929;SDS011;61073;54.260;20.816;2022-08-21T11:01:33;2.60;;;2.20;;
72929;SDS011;61073;54.260;20.816;2022-08-21T11:04:02;2.38;;;2.25;;
72929;SDS011;61073;54.260;20.816;2022-08-21T11:06:51;2.35;;;2.15;;
72929;SDS011;61073;54.260;20.816;2022-08-21T11:09:23;2.42;;;2.22;;
72929;SDS011;61073;54.260;20.816;2022-08-21T11:11:54;3.65;;;2.47;;
72929;SDS011;61073;54.260;20.816;2022-08-21T11:14:42;2.03;;;1.92;;
72929;SDS011;61073;54.260;20.816;2022-08-21T11:20:28;2.25;;;2.15;;
72929;SDS011;61073;54.260;20.816;2022-08-21T11:25:40;2.35;;;2.15;;
72929;SDS011;61073;54.260;20.816;2022-08-21T11:28:21;2.10;;;1.92;;
72929;SDS011;61073;54.260;20.816;2022-08-21T11:40:03;3.10;;;2.42;;
72929;SDS011;61073;54.260;20.816;2022-08-21T11:42:40;2.30;;;2.10;;
72929;SDS011;61073;54.260;20.816;2022-08-21T11:45:43;2.15;;;2.05;;
72929;SDS011;61073;54.260;20.816;2022-08-21T11:48:25;2.30;;;2.10;;
72929;SDS011;61073;54.260;20.816;2022-08-21T11:51:13;2.15;;;1.95;;
72929;SDS011;61073;54.260;20.816;2022-08-21T11:53:53;2.33;;;2.13;;
72929;SDS011;61073;54.260;20.816;2022-08-21T11:56:41;2.40;;;2.20;;
72929;SDS011;61073;54.260;20.816;2022-08-21T11:59:36;2.03;;;1.92;;
72929;SDS011;61073;54.260;20.816;2022-08-21T12:02:11;2.20;;;1.98;;
72929;SDS011;61073;54.260;20.816;2022-08-21T12:07:48;2.22;;;2.13;;
72929;SDS011;61073;54.260;20.816;2022-08-21T12:10:31;1.88;;;1.77;;
72929;SDS011;61073;54.260;20.816;2022-08-21T12:15:53;1.83;;;1.73;;
72929;SDS011;61073;54.260;20.816;2022-08-21T12:18:49;2.25;;;2.00;;
72929;SDS011;61073;54.260;20.816;2022-08-21T12:21:27;2.13;;;2.03;;
72929;SDS011;61073;54.260;20.816;2022-08-21T12:34:24;2.60;;;2.30;;
72929;SDS011;61073;54.260;20.816;2022-08-21T12:40:02;2.30;;;2.20;;
72929;SDS011;61073;54.260;20.816;2022-08-21T12:42:41;2.17;;;2.00;;
72929;SDS011;61073;54.260;20.816;2022-08-21T12:45:19;2.20;;;2.00;;
72929;SDS011;61073;54.260;20.816;2022-08-21T12:53:25;2.28;;;2.08;;
72929;SDS011;61073;54.260;20.816;2022-08-21T12:56:13;2.45;;;2.25;;
72929;SDS011;61073;54.260;20.816;2022-08-21T12:58:45;2.30;;;2.10;;
72929;SDS011;61073;54.260;20.816;2022-08-21T13:04:08;3.13;;;2.20;;
72929;SDS011;61073;54.260;20.816;2022-08-21T13:06:39;2.33;;;2.13;;
72929;SDS011;61073;54.260;20.816;2022-08-21T13:09:11;2.28;;;2.17;;
72929;SDS011;61073;54.260;20.816;2022-08-21T13:11:41;2.55;;;2.35;;
72929;SDS011;61073;54.260;20.816;2022-08-21T13:14:14;2.50;;;2.30;;
72929;SDS011;61073;54.260;20.816;2022-08-21T13:16:52;2.25;;;2.10;;
72929;SDS011;61073;54.260;20.816;2022-08-21T13:19:23;2.08;;;1.98;;
72929;SDS011;61073;54.260;20.816;2022-08-21T13:21:51;3.17;;;2.00;;
72929;SDS011;61073;54.260;20.816;2022-08-21T13:24:24;2.28;;;2.17;;
72929;SDS011;61073;54.260;20.816;2022-08-21T13:27:16;2.00;;;1.90;;
72929;SDS011;61073;54.260;20.816;2022-08-21T13:30:00;2.35;;;2.17;;
72929;SDS011;61073;54.260;20.816;2022-08-21T13:32:33;2.17;;;2.05;;
72929;SDS011;61073;54.260;20.816;2022-08-21T13:35:07;2.42;;;2.20;;
72929;SDS011;61073;54.260;20.816;2022-08-21T13:37:37;2.25;;;2.08;;
72929;SDS011;61073;54.260;20.816;2022-08-21T13:40:07;2.00;;;1.90;;
72929;SDS011;61073;54.260;20.816;2022-08-21T13:42:38;2.38;;;2.17;;
72929;SDS011;61073;54.260;20.816;2022-08-21T13:45:11;3.00;;;2.03;;
72929;SDS011;61073;54.260;20.816;2022-08-21T13:47:59;2.40;;;2.20;;
72929;SDS011;61073;54.260;20.816;2022-08-21T13:50:28;2.40;;;2.20;;
72929;SDS011;61073;54.260;20.816;2022-08-21T13:53:00;2.28;;;2.08;;
72929;SDS011;61073;54.260;20.816;2022-08-21T13:55:49;2.15;;;2.03;;
72929;SDS011;61073;54.260;20.816;2022-08-21T13:58:24;2.30;;;2.10;;
72929;SDS011;61073;54.260;20.816;2022-08-21T14:01:18;1.92;;;1.83;;
72929;SDS011;61073;54.260;20.816;2022-08-21T14:03:49;2.40;;;2.20;;
72929;SDS011;61073;54.260;20.816;2022-08-21T14:06:20;2.58;;;2.38;;
72929;SDS011;61073;54.260;20.816;2022-08-21T14:08:50;2.00;;;1.90;;
72929;SDS011;61073;54.260;20.816;2022-08-21T14:11:21;2.30;;;2.20;;
72929;SDS011;61073;54.260;20.816;2022-08-21T14:13:49;2.60;;;2.30;;
72929;SDS011;61073;54.260;20.816;2022-08-21T14:16:24;2.22;;;1.95;;
72929;SDS011;61073;54.260;20.816;2022-08-21T14:21:24;2.10;;;1.90;;
72929;SDS011;61073;54.260;20.816;2022-08-21T14:27:04;2.20;;;2.00;;
72929;SDS011;61073;54.260;20.816;2022-08-21T14:29:34;2.28;;;2.00;;
72929;SDS011;61073;54.260;20.816;2022-08-21T14:32:09;2.88;;;2.67;;
72929;SDS011;61073;54.260;20.816;2022-08-21T14:34:36;2.20;;;2.00;;
72929;SDS011;61073;54.260;20.816;2022-08-21T14:37:03;2.40;;;2.20;;
72929;SDS011;61073;54.260;20.816;2022-08-21T14:39:30;2.10;;;2.00;;
72929;SDS011;61073;54.260;20.816;2022-08-21T14:41:57;2.20;;;2.10;;
72929;SDS011;61073;54.260;20.816;2022-08-21T14:44:25;2.35;;;2.15;;
72929;SDS011;61073;54.260;20.816;2022-08-21T14:46:52;2.40;;;2.17;;
72929;SDS011;61073;54.260;20.816;2022-08-21T14:49:19;1.75;;;1.65;;
72929;SDS011;61073;54.260;20.816;2022-08-21T14:51:45;2.58;;;2.08;;
72929;SDS011;61073;54.260;20.816;2022-08-21T14:54:13;2.05;;;1.95;;
72929;SDS011;61073;54.260;20.816;2022-08-21T14:56:40;2.35;;;2.15;;
72929;SDS011;61073;54.260;20.816;2022-08-21T14:59:07;2.60;;;2.40;;
72929;SDS011;61073;54.260;20.816;2022-08-21T15:01:35;2.33;;;2.10;;
72929;SDS011;61073;54.260;20.816;2022-08-21T15:04:03;2.63;;;2.33;;
72929;SDS011;61073;54.260;20.816;2022-08-21T15:06:30;2.30;;;2.10;;
72929;SDS011;61073;54.260;20.816;2022-08-21T15:08:57;2.30;;;2.10;;
72929;SDS011;61073;54.260;20.816;2022-08-21T15:11:24;2.50;;;2.25;;
72929;SDS011;61073;54.260;20.816;2022-08-21T15:13:53;2.38;;;2.17;;
72929;SDS011;61073;54.260;20.816;2022-08-21T15:16:24;2.20;;;2.10;;
72929;SDS011;61073;54.260;20.816;2022-08-21T15:18:51;2.40;;;2.20;;
72929;SDS011;61073;54.260;20.816;2022-08-21T15:21:18;2.33;;;2.17;;
72929;SDS011;61073;54.260;20.816;2022-08-21T15:23:45;2.20;;;2.00;;
72929;SDS011;61073;54.260;20.816;2022-08-21T15:26:11;2.50;;;2.30;;
72929;SDS011;61073;54.260;20.816;2022-08-21T15:28:38;2.50;;;2.30;;
72929;SDS011;61073;54.260;20.816;2022-08-21T15:31:05;2.30;;;2.10;;
72929;SDS011;61073;54.260;20.816;2022-08-21T15:33:33;2.03;;;1.92;;
72929;SDS011;61073;54.260;20.816;2022-08-21T15:36:00;2.25;;;2.05;;
72929;SDS011;61073;54.260;20.816;2022-08-21T15:38:27;2.10;;;2.00;;
72929;SDS011;61073;54.260;20.816;2022-08-21T15:40:53;3.92;;;2.50;;
72929;SDS011;61073;54.260;20.816;2022-08-21T15:43:27;2.40;;;2.20;;
72929;SDS011;61073;54.260;20.816;2022-08-21T15:45:57;2.65;;;2.30;;
72929;SDS011;61073;54.260;20.816;2022-08-21T15:48:25;2.70;;;2.28;;
72929;SDS011;61073;54.260;20.816;2022-08-21T15:50:52;2.17;;;1.98;;
72929;SDS011;61073;54.260;20.816;2022-08-21T15:53:18;2.70;;;2.35;;
72929;SDS011;61073;54.260;20.816;2022-08-21T15:55:45;2.67;;;2.30;;
72929;SDS011;61073;54.260;20.816;2022-08-21T15:58:12;2.42;;;2.22;;
72929;SDS011;61073;54.260;20.816;2022-08-21T16:00:41;2.55;;;2.35;;
72929;SDS011;61073;54.260;20.816;2022-08-21T16:03:11;2.40;;;2.20;;
72929;SDS011;61073;54.260;20.816;2022-08-21T16:05:43;3.58;;;2.10;;
72929;SDS011;61073;54.260;20.816;2022-08-21T16:08:10;2.40;;;2.20;;
72929;SDS011;61073;54.260;20.816;2022-08-21T16:10:37;2.53;;;2.03;;
72929;SDS011;61073;54.260;20.816;2022-08-21T16:13:06;2.35;;;2.10;;
72929;SDS011;61073;54.260;20.816;2022-08-21T16:15:39;2.80;;;2.60;;
72929;SDS011;61073;54.260;20.816;2022-08-21T16:18:06;2.88;;;2.58;;
72929;SDS011;61073;54.260;20.816;2022-08-21T16:20:33;2.92;;;2.50;;
72929;SDS011;61073;54.260;20.816;2022-08-21T16:22:59;3.80;;;2.45;;
72929;SDS011;61073;54.260;20.816;2022-08-21T16:25:26;3.05;;;2.20;;
72929;SDS011;61073;54.260;20.816;2022-08-21T16:27:55;2.50;;;2.30;;
72929;SDS011;61073;54.260;20.816;2022-08-21T16:30:25;2.97;;;2.60;;
72929;SDS011;61073;54.260;20.816;2022-08-21T16:32:53;3.10;;;2.55;;
72929;SDS011;61073;54.260;20.816;2022-08-21T16:35:21;2.72;;;2.42;;
72929;SDS011;61073;54.260;20.816;2022-08-21T16:37:48;3.28;;;2.63;;
72929;SDS011;61073;54.260;20.816;2022-08-21T16:40:18;3.45;;;2.45;;